sensor_id;sensor_type;location;lat;lon;timestamp;temperature;humidity
71175;DHT22;58876;51.994;4.472;2024-02-21T00:02:04;10.40;84.26
71175;DHT22;58876;51.994;4.472;2024-02-21T00:04:30;10.51;83.95
71175;DHT22;58876;51.994;4.472;2024-02-21T00:06:56;10.46;84.00
71175;DHT22;58876;51.994;4.472;2024-02-21T00:09:21;10.46;83.91
71175;DHT22;58876;51.994;4.472;2024-02-21T00:11:46;10.59;83.74
71175;DHT22;58876;51.994;4.472;2024-02-21T00:14:13;10.47;83.87
71175;DHT22;58876;51.994;4.472;2024-02-21T00:16:38;10.44;84.16
71175;DHT22;58876;51.994;4.472;2024-02-21T00:19:04;10.56;83.71
71175;DHT22;58876;51.994;4.472;2024-02-21T00:21:30;10.65;83.44
71175;DHT22;58876;51.994;4.472;2024-02-21T00:23:55;10.56;83.63
71175;DHT22;58876;51.994;4.472;2024-02-21T00:26:21;10.34;84.18
71175;DHT22;58876;51.994;4.472;2024-02-21T00:28:46;10.34;84.33
71175;DHT22;58876;51.994;4.472;2024-02-21T00:31:12;10.65;83.34
71175;DHT22;58876;51.994;4.472;2024-02-21T00:33:37;10.51;84.12
71175;DHT22;58876;51.994;4.472;2024-02-21T00:36:03;10.51;84.10
71175;DHT22;58876;51.994;4.472;2024-02-21T00:38:28;10.42;84.53
71175;DHT22;58876;51.994;4.472;2024-02-21T00:40:54;10.33;84.69
71175;DHT22;58876;51.994;4.472;2024-02-21T00:43:19;10.32;84.91
71175;DHT22;58876;51.994;4.472;2024-02-21T00:45:49;10.36;84.72
71175;DHT22;58876;51.994;4.472;2024-02-21T00:48:14;10.34;84.54
71175;DHT22;58876;51.994;4.472;2024-02-21T00:50:40;10.34;84.55
71175;DHT22;58876;51.994;4.472;2024-02-21T00:53:05;10.33;84.76
71175;DHT22;58876;51.994;4.472;2024-02-21T00:55:31;10.29;84.98
71175;DHT22;58876;51.994;4.472;2024-02-21T00:57:56;10.47;84.39
71175;DHT22;58876;51.994;4.472;2024-02-21T01:00:22;10.43;84.56
71175;DHT22;58876;51.994;4.472;2024-02-21T01:02:47;10.43;84.43
71175;DHT22;58876;51.994;4.472;2024-02-21T01:05:13;10.30;84.80
71175;DHT22;58876;51.994;4.472;2024-02-21T01:07:38;10.37;84.80
71175;DHT22;58876;51.994;4.472;2024-02-21T01:10:04;10.44;84.24
71175;DHT22;58876;51.994;4.472;2024-02-21T01:12:30;10.40;84.68
71175;DHT22;58876;51.994;4.472;2024-02-21T01:14:55;10.34;84.63
71175;DHT22;58876;51.994;4.472;2024-02-21T01:17:21;10.34;84.73
71175;DHT22;58876;51.994;4.472;2024-02-21T01:19:47;10.34;84.83
71175;DHT22;58876;51.994;4.472;2024-02-21T01:22:12;10.46;84.54
71175;DHT22;58876;51.994;4.472;2024-02-21T01:24:38;10.43;84.55
71175;DHT22;58876;51.994;4.472;2024-02-21T01:27:04;10.59;84.28
71175;DHT22;58876;51.994;4.472;2024-02-21T01:29:29;10.49;84.27
71175;DHT22;58876;51.994;4.472;2024-02-21T01:31:55;10.36;84.51
71175;DHT22;58876;51.994;4.472;2024-02-21T01:34:20;10.51;84.49
71175;DHT22;58876;51.994;4.472;2024-02-21T01:36:46;10.49;83.99
71175;DHT22;58876;51.994;4.472;2024-02-21T01:39:11;10.44;84.33
71175;DHT22;58876;51.994;4.472;2024-02-21T01:41:40;10.42;84.12
71175;DHT22;58876;51.994;4.472;2024-02-21T01:44:05;10.46;83.96
71175;DHT22;58876;51.994;4.472;2024-02-21T01:46:31;10.42;84.31
71175;DHT22;58876;51.994;4.472;2024-02-21T01:48:57;10.49;83.76
71175;DHT22;58876;51.994;4.472;2024-02-21T01:51:27;10.42;84.20
71175;DHT22;58876;51.994;4.472;2024-02-21T01:53:55;10.47;84.33
71175;DHT22;58876;51.994;4.472;2024-02-21T01:56:22;10.51;84.09
71175;DHT22;58876;51.994;4.472;2024-02-21T01:58:49;10.37;84.26
71175;DHT22;58876;51.994;4.472;2024-02-21T02:01:14;10.39;84.13
71175;DHT22;58876;51.994;4.472;2024-02-21T02:03:40;10.39;84.27
71175;DHT22;58876;51.994;4.472;2024-02-21T02:06:06;10.46;84.29
71175;DHT22;58876;51.994;4.472;2024-02-21T02:08:32;10.33;84.41
71175;DHT22;58876;51.994;4.472;2024-02-21T02:10:59;10.34;84.50
71175;DHT22;58876;51.994;4.472;2024-02-21T02:13:24;10.23;84.87
71175;DHT22;58876;51.994;4.472;2024-02-21T02:15:50;10.33;84.58
71175;DHT22;58876;51.994;4.472;2024-02-21T02:18:18;10.46;84.29
71175;DHT22;58876;51.994;4.472;2024-02-21T02:20:44;10.54;84.03
71175;DHT22;58876;51.994;4.472;2024-02-21T02:23:16;10.50;83.86
71175;DHT22;58876;51.994;4.472;2024-02-21T02:25:42;10.29;84.57
71175;DHT22;58876;51.994;4.472;2024-02-21T02:28:09;10.51;84.33
71175;DHT22;58876;51.994;4.472;2024-02-21T02:30:40;10.47;83.88
71175;DHT22;58876;51.994;4.472;2024-02-21T02:33:06;10.37;84.08
71175;DHT22;58876;51.994;4.472;2024-02-21T02:35:32;10.24;84.25
71175;DHT22;58876;51.994;4.472;2024-02-21T02:37:58;10.34;84.37
71175;DHT22;58876;51.994;4.472;2024-02-21T02:40:24;10.34;84.37
71175;DHT22;58876;51.994;4.472;2024-02-21T02:42:50;10.44;84.04
71175;DHT22;58876;51.994;4.472;2024-02-21T02:45:17;10.29;84.07
71175;DHT22;58876;51.994;4.472;2024-02-21T02:47:46;10.20;84.43
71175;DHT22;58876;51.994;4.472;2024-02-21T02:50:13;10.20;84.52
71175;DHT22;58876;51.994;4.472;2024-02-21T02:52:38;10.24;84.14
71175;DHT22;58876;51.994;4.472;2024-02-21T02:55:05;10.30;84.29
71175;DHT22;58876;51.994;4.472;2024-02-21T02:57:30;10.34;83.96
71175;DHT22;58876;51.994;4.472;2024-02-21T02:59:56;10.37;84.01
71175;DHT22;58876;51.994;4.472;2024-02-21T03:02:21;10.36;83.66
71175;DHT22;58876;51.994;4.472;2024-02-21T03:04:47;10.39;84.16
71175;DHT22;58876;51.994;4.472;2024-02-21T03:07:14;10.32;83.95
71175;DHT22;58876;51.994;4.472;2024-02-21T03:09:41;10.36;83.94
71175;DHT22;58876;51.994;4.472;2024-02-21T03:12:09;10.26;84.04
71175;DHT22;58876;51.994;4.472;2024-02-21T03:14:35;10.19;84.48
71175;DHT22;58876;51.994;4.472;2024-02-21T03:17:01;10.20;84.54
71175;DHT22;58876;51.994;4.472;2024-02-21T03:19:27;10.19;84.14
71175;DHT22;58876;51.994;4.472;2024-02-21T03:21:53;10.24;84.38
71175;DHT22;58876;51.994;4.472;2024-02-21T03:24:19;10.43;83.89
71175;DHT22;58876;51.994;4.472;2024-02-21T03:26:45;10.29;84.04
71175;DHT22;58876;51.994;4.472;2024-02-21T03:29:16;10.30;83.97
71175;DHT22;58876;51.994;4.472;2024-02-21T03:31:42;10.28;84.00
71175;DHT22;58876;51.994;4.472;2024-02-21T03:34:10;10.40;83.85
71175;DHT22;58876;51.994;4.472;2024-02-21T03:36:36;10.43;83.91
71175;DHT22;58876;51.994;4.472;2024-02-21T03:39:01;10.50;83.32
71175;DHT22;58876;51.994;4.472;2024-02-21T03:41:27;10.46;83.50
71175;DHT22;58876;51.994;4.472;2024-02-21T03:43:52;10.53;83.41
71175;DHT22;58876;51.994;4.472;2024-02-21T03:46:18;10.54;82.98
71175;DHT22;58876;51.994;4.472;2024-02-21T03:48:43;10.60;82.74
71175;DHT22;58876;51.994;4.472;2024-02-21T03:51:09;10.61;82.54
71175;DHT22;58876;51.994;4.472;2024-02-21T03:53:34;10.63;82.50
71175;DHT22;58876;51.994;4.472;2024-02-21T03:56:03;10.53;82.88
71175;DHT22;58876;51.994;4.472;2024-02-21T03:58:30;10.36;83.12
71175;DHT22;58876;51.994;4.472;2024-02-21T04:00:56;10.37;83.24
71175;DHT22;58876;51.994;4.472;2024-02-21T04:03:21;10.53;83.07
71175;DHT22;58876;51.994;4.472;2024-02-21T04:05:47;10.63;82.65
71175;DHT22;58876;51.994;4.472;2024-02-21T04:08:14;10.63;82.27
71175;DHT22;58876;51.994;4.472;2024-02-21T04:10:39;10.54;82.76
71175;DHT22;58876;51.994;4.472;2024-02-21T04:13:06;10.43;82.77
71175;DHT22;58876;51.994;4.472;2024-02-21T04:15:32;10.36;83.41
71175;DHT22;58876;51.994;4.472;2024-02-21T04:17:58;10.39;83.22
71175;DHT22;58876;51.994;4.472;2024-02-21T04:20:23;10.43;83.11
71175;DHT22;58876;51.994;4.472;2024-02-21T04:22:49;10.34;83.40
71175;DHT22;58876;51.994;4.472;2024-02-21T04:25:14;10.33;83.45
71175;DHT22;58876;51.994;4.472;2024-02-21T04:27:40;10.34;83.12
71175;DHT22;58876;51.994;4.472;2024-02-21T04:30:06;10.34;83.14
71175;DHT22;58876;51.994;4.472;2024-02-21T04:32:32;10.32;83.07
71175;DHT22;58876;51.994;4.472;2024-02-21T04:34:58;10.32;83.67
71175;DHT22;58876;51.994;4.472;2024-02-21T04:37:23;10.32;83.28
71175;DHT22;58876;51.994;4.472;2024-02-21T04:39:50;10.32;83.21
71175;DHT22;58876;51.994;4.472;2024-02-21T04:42:16;10.28;83.72
71175;DHT22;58876;51.994;4.472;2024-02-21T04:44:41;10.32;83.45
71175;DHT22;58876;51.994;4.472;2024-02-21T04:47:07;10.32;83.38
71175;DHT22;58876;51.994;4.472;2024-02-21T04:49:33;10.47;83.03
71175;DHT22;58876;51.994;4.472;2024-02-21T04:51:59;10.39;83.11
71175;DHT22;58876;51.994;4.472;2024-02-21T04:54:25;10.40;82.76
71175;DHT22;58876;51.994;4.472;2024-02-21T04:56:51;10.33;82.99
71175;DHT22;58876;51.994;4.472;2024-02-21T04:59:16;10.29;82.98
71175;DHT22;58876;51.994;4.472;2024-02-21T05:01:42;10.30;83.61
71175;DHT22;58876;51.994;4.472;2024-02-21T05:04:08;10.29;83.30
71175;DHT22;58876;51.994;4.472;2024-02-21T05:06:40;10.36;83.09
71175;DHT22;58876;51.994;4.472;2024-02-21T05:09:07;10.16;83.61
71175;DHT22;58876;51.994;4.472;2024-02-21T05:11:34;10.29;83.47
71175;DHT22;58876;51.994;4.472;2024-02-21T05:13:59;10.20;83.30
71175;DHT22;58876;51.994;4.472;2024-02-21T05:16:25;10.16;83.65
71175;DHT22;58876;51.994;4.472;2024-02-21T05:18:50;10.32;83.27
71175;DHT22;58876;51.994;4.472;2024-02-21T05:21:15;10.13;83.43
71175;DHT22;58876;51.994;4.472;2024-02-21T05:23:41;10.14;83.74
71175;DHT22;58876;51.994;4.472;2024-02-21T05:26:07;10.16;83.75
71175;DHT22;58876;51.994;4.472;2024-02-21T05:28:33;10.28;83.47
71175;DHT22;58876;51.994;4.472;2024-02-21T05:30:58;10.20;83.39
71175;DHT22;58876;51.994;4.472;2024-02-21T05:33:24;10.23;83.41
71175;DHT22;58876;51.994;4.472;2024-02-21T05:35:50;10.29;83.16
71175;DHT22;58876;51.994;4.472;2024-02-21T05:38:16;10.34;82.94
71175;DHT22;58876;51.994;4.472;2024-02-21T05:40:44;10.36;82.79
71175;DHT22;58876;51.994;4.472;2024-02-21T05:43:09;10.43;82.67
71175;DHT22;58876;51.994;4.472;2024-02-21T05:45:35;10.34;82.69
71175;DHT22;58876;51.994;4.472;2024-02-21T05:48:00;10.32;82.83
71175;DHT22;58876;51.994;4.472;2024-02-21T05:50:27;10.28;83.36
71175;DHT22;58876;51.994;4.472;2024-02-21T05:52:56;10.29;83.47
71175;DHT22;58876;51.994;4.472;2024-02-21T05:55:22;10.44;83.19
71175;DHT22;58876;51.994;4.472;2024-02-21T05:57:48;10.39;82.96
71175;DHT22;58876;51.994;4.472;2024-02-21T06:00:14;10.46;82.75
71175;DHT22;58876;51.994;4.472;2024-02-21T06:02:41;10.37;82.74
71175;DHT22;58876;51.994;4.472;2024-02-21T06:05:07;10.37;82.94
71175;DHT22;58876;51.994;4.472;2024-02-21T06:07:34;10.23;83.34
71175;DHT22;58876;51.994;4.472;2024-02-21T06:10:01;10.23;83.39
71175;DHT22;58876;51.994;4.472;2024-02-21T06:12:26;10.13;83.57
71175;DHT22;58876;51.994;4.472;2024-02-21T06:14:52;10.14;83.41
71175;DHT22;58876;51.994;4.472;2024-02-21T06:17:17;10.16;83.29
71175;DHT22;58876;51.994;4.472;2024-02-21T06:19:44;10.24;83.10
71175;DHT22;58876;51.994;4.472;2024-02-21T06:22:10;10.20;83.22
71175;DHT22;58876;51.994;4.472;2024-02-21T06:24:36;10.28;83.25
71175;DHT22;58876;51.994;4.472;2024-02-21T06:27:05;10.13;83.35
71175;DHT22;58876;51.994;4.472;2024-02-21T06:29:34;10.19;83.32
71175;DHT22;58876;51.994;4.472;2024-02-21T06:32:00;10.20;83.26
71175;DHT22;58876;51.994;4.472;2024-02-21T06:34:26;10.23;83.42
71175;DHT22;58876;51.994;4.472;2024-02-21T06:36:51;10.30;83.06
71175;DHT22;58876;51.994;4.472;2024-02-21T06:39:17;10.29;83.05
71175;DHT22;58876;51.994;4.472;2024-02-21T06:41:43;10.26;83.35
71175;DHT22;58876;51.994;4.472;2024-02-21T06:44:08;10.24;83.39
71175;DHT22;58876;51.994;4.472;2024-02-21T06:46:34;10.33;83.09
71175;DHT22;58876;51.994;4.472;2024-02-21T06:49:00;10.22;83.06
71175;DHT22;58876;51.994;4.472;2024-02-21T06:51:27;10.10;83.53
71175;DHT22;58876;51.994;4.472;2024-02-21T06:53:55;10.17;83.49
71175;DHT22;58876;51.994;4.472;2024-02-21T06:56:24;10.06;83.61
71175;DHT22;58876;51.994;4.472;2024-02-21T06:58:57;10.24;83.42
71175;DHT22;58876;51.994;4.472;2024-02-21T07:01:23;10.30;82.73
71175;DHT22;58876;51.994;4.472;2024-02-21T07:03:49;10.34;82.57
71175;DHT22;58876;51.994;4.472;2024-02-21T07:06:15;10.36;82.42
71175;DHT22;58876;51.994;4.472;2024-02-21T07:08:40;10.37;82.89
71175;DHT22;58876;51.994;4.472;2024-02-21T07:11:06;10.26;82.91
71175;DHT22;58876;51.994;4.472;2024-02-21T07:13:32;10.23;82.84
71175;DHT22;58876;51.994;4.472;2024-02-21T07:15:58;10.19;83.03
71175;DHT22;58876;51.994;4.472;2024-02-21T07:18:23;10.22;83.26
71175;DHT22;58876;51.994;4.472;2024-02-21T07:20:51;10.39;83.07
71175;DHT22;58876;51.994;4.472;2024-02-21T07:23:17;10.36;82.64
71175;DHT22;58876;51.994;4.472;2024-02-21T07:25:43;10.47;82.55
71175;DHT22;58876;51.994;4.472;2024-02-21T07:28:08;10.46;82.26
71175;DHT22;58876;51.994;4.472;2024-02-21T07:30:34;10.37;82.55
71175;DHT22;58876;51.994;4.472;2024-02-21T07:32:59;10.19;83.12
71175;DHT22;58876;51.994;4.472;2024-02-21T07:35:25;10.20;83.41
71175;DHT22;58876;51.994;4.472;2024-02-21T07:37:50;10.24;83.03
71175;DHT22;58876;51.994;4.472;2024-02-21T07:40:17;10.14;83.44
71175;DHT22;58876;51.994;4.472;2024-02-21T07:42:43;10.05;83.63
71175;DHT22;58876;51.994;4.472;2024-02-21T07:45:09;10.08;83.96
71175;DHT22;58876;51.994;4.472;2024-02-21T07:47:36;10.24;83.44
71175;DHT22;58876;51.994;4.472;2024-02-21T07:50:06;10.14;83.47
71175;DHT22;58876;51.994;4.472;2024-02-21T07:52:32;9.92;83.94
71175;DHT22;58876;51.994;4.472;2024-02-21T07:54:57;10.06;84.17
71175;DHT22;58876;51.994;4.472;2024-02-21T07:57:23;10.10;83.85
71175;DHT22;58876;51.994;4.472;2024-02-21T07:59:48;10.37;83.41
71175;DHT22;58876;51.994;4.472;2024-02-21T08:02:14;10.16;82.82
71175;DHT22;58876;51.994;4.472;2024-02-21T08:04:40;10.20;83.29
71175;DHT22;58876;51.994;4.472;2024-02-21T08:07:06;10.19;83.03
71175;DHT22;58876;51.994;4.472;2024-02-21T08:09:31;10.06;83.70
71175;DHT22;58876;51.994;4.472;2024-02-21T08:11:57;10.19;83.47
71175;DHT22;58876;51.994;4.472;2024-02-21T08:14:22;10.12;83.67
71175;DHT22;58876;51.994;4.472;2024-02-21T08:16:51;10.16;83.34
71175;DHT22;58876;51.994;4.472;2024-02-21T08:19:18;10.30;82.98
71175;DHT22;58876;51.994;4.472;2024-02-21T08:21:44;10.19;82.84
71175;DHT22;58876;51.994;4.472;2024-02-21T08:24:14;10.17;83.29
71175;DHT22;58876;51.994;4.472;2024-02-21T08:26:44;10.17;83.25
71175;DHT22;58876;51.994;4.472;2024-02-21T08:29:11;10.28;83.30
71175;DHT22;58876;51.994;4.472;2024-02-21T08:31:37;10.39;82.78
71175;DHT22;58876;51.994;4.472;2024-02-21T08:34:03;10.44;82.12
71175;DHT22;58876;51.994;4.472;2024-02-21T08:36:33;10.29;82.26
71175;DHT22;58876;51.994;4.472;2024-02-21T08:39:00;10.28;82.66
71175;DHT22;58876;51.994;4.472;2024-02-21T08:41:26;10.19;82.41
71175;DHT22;58876;51.994;4.472;2024-02-21T08:43:53;10.10;83.05
71175;DHT22;58876;51.994;4.472;2024-02-21T08:46:19;10.40;82.54
71175;DHT22;58876;51.994;4.472;2024-02-21T08:48:46;10.46;81.74
71175;DHT22;58876;51.994;4.472;2024-02-21T08:51:15;10.34;82.07
71175;DHT22;58876;51.994;4.472;2024-02-21T08:53:41;10.12;83.01
71175;DHT22;58876;51.994;4.472;2024-02-21T08:56:07;10.51;81.73
71175;DHT22;58876;51.994;4.472;2024-02-21T08:58:36;10.65;81.16
71175;DHT22;58876;51.994;4.472;2024-02-21T09:01:03;10.65;81.02
71175;DHT22;58876;51.994;4.472;2024-02-21T09:03:31;10.36;81.55
71175;DHT22;58876;51.994;4.472;2024-02-21T09:05:57;10.43;81.72
71175;DHT22;58876;51.994;4.472;2024-02-21T09:08:22;9.95;83.04
71175;DHT22;58876;51.994;4.472;2024-02-21T09:10:49;10.06;82.96
71175;DHT22;58876;51.994;4.472;2024-02-21T09:13:15;10.40;82.17
71175;DHT22;58876;51.994;4.472;2024-02-21T09:15:40;10.63;81.29
71175;DHT22;58876;51.994;4.472;2024-02-21T09:18:06;10.80;80.73
71175;DHT22;58876;51.994;4.472;2024-02-21T09:20:31;10.94;79.83
71175;DHT22;58876;51.994;4.472;2024-02-21T09:22:57;10.87;79.98
71175;DHT22;58876;51.994;4.472;2024-02-21T09:25:22;10.91;80.13
71175;DHT22;58876;51.994;4.472;2024-02-21T09:27:48;11.00;79.61
71175;DHT22;58876;51.994;4.472;2024-02-21T09:30:13;11.02;79.73
71175;DHT22;58876;51.994;4.472;2024-02-21T09:32:39;11.11;79.44
71175;DHT22;58876;51.994;4.472;2024-02-21T09:35:05;11.38;78.53
71175;DHT22;58876;51.994;4.472;2024-02-21T09:37:31;11.26;78.78
71175;DHT22;58876;51.994;4.472;2024-02-21T09:39:57;11.40;78.74
71175;DHT22;58876;51.994;4.472;2024-02-21T09:42:38;11.00;79.82
71175;DHT22;58876;51.994;4.472;2024-02-21T09:45:25;10.75;79.67
71175;DHT22;58876;51.994;4.472;2024-02-21T09:50:40;10.53;80.83
71175;DHT22;58876;51.994;4.472;2024-02-21T09:53:12;10.60;80.79
71175;DHT22;58876;51.994;4.472;2024-02-21T09:55:38;10.88;80.17
71175;DHT22;58876;51.994;4.472;2024-02-21T09:58:07;11.11;79.36
71175;DHT22;58876;51.994;4.472;2024-02-21T10:00:35;11.31;78.21
71175;DHT22;58876;51.994;4.472;2024-02-21T10:03:01;11.50;77.72
71175;DHT22;58876;51.994;4.472;2024-02-21T10:05:27;11.49;77.33
71175;DHT22;58876;51.994;4.472;2024-02-21T10:07:52;11.81;76.36
71175;DHT22;58876;51.994;4.472;2024-02-21T10:10:19;11.42;77.09
71175;DHT22;58876;51.994;4.472;2024-02-21T10:12:51;11.19;78.10
71175;DHT22;58876;51.994;4.472;2024-02-21T10:15:20;11.01;78.96
71175;DHT22;58876;51.994;4.472;2024-02-21T10:17:48;11.35;78.42
71175;DHT22;58876;51.994;4.472;2024-02-21T10:20:14;11.73;75.96
71175;DHT22;58876;51.994;4.472;2024-02-21T10:22:40;11.76;75.98
71175;DHT22;58876;51.994;4.472;2024-02-21T10:25:09;11.40;77.55
71175;DHT22;58876;51.994;4.472;2024-02-21T10:27:36;11.33;77.17
71175;DHT22;58876;51.994;4.472;2024-02-21T10:30:03;11.35;77.41
71175;DHT22;58876;51.994;4.472;2024-02-21T10:32:29;11.08;77.55
71175;DHT22;58876;51.994;4.472;2024-02-21T10:35:03;11.46;76.61
71175;DHT22;58876;51.994;4.472;2024-02-21T10:37:31;10.92;78.94
71175;DHT22;58876;51.994;4.472;2024-02-21T10:39:57;11.15;77.55
71175;DHT22;58876;51.994;4.472;2024-02-21T10:42:29;11.11;77.58
71175;DHT22;58876;51.994;4.472;2024-02-21T10:45:00;11.47;76.65
71175;DHT22;58876;51.994;4.472;2024-02-21T10:47:31;11.31;76.40
71175;DHT22;58876;51.994;4.472;2024-02-21T10:50:04;11.44;76.64
71175;DHT22;58876;51.994;4.472;2024-02-21T10:52:51;11.26;77.93
71175;DHT22;58876;51.994;4.472;2024-02-21T10:55:31;11.25;77.27
71175;DHT22;58876;51.994;4.472;2024-02-21T10:58:02;11.25;77.07
71175;DHT22;58876;51.994;4.472;2024-02-21T11:00:30;11.59;76.05
71175;DHT22;58876;51.994;4.472;2024-02-21T11:02:58;11.69;76.85
71175;DHT22;58876;51.994;4.472;2024-02-21T11:05:25;11.33;77.67
71175;DHT22;58876;51.994;4.472;2024-02-21T11:07:53;11.67;77.00
71175;DHT22;58876;51.994;4.472;2024-02-21T11:10:26;10.98;78.04
71175;DHT22;58876;51.994;4.472;2024-02-21T11:13:08;11.01;77.95
71175;DHT22;58876;51.994;4.472;2024-02-21T11:15:33;10.97;77.87
71175;DHT22;58876;51.994;4.472;2024-02-21T11:17:59;11.14;77.78
71175;DHT22;58876;51.994;4.472;2024-02-21T11:20:39;11.07;77.52
71175;DHT22;58876;51.994;4.472;2024-02-21T11:23:05;10.78;78.19
71175;DHT22;58876;51.994;4.472;2024-02-21T11:25:30;11.12;78.06
71175;DHT22;58876;51.994;4.472;2024-02-21T11:28:04;11.43;77.55
71175;DHT22;58876;51.994;4.472;2024-02-21T11:30:35;11.42;76.95
71175;DHT22;58876;51.994;4.472;2024-02-21T11:33:06;11.56;76.69
71175;DHT22;58876;51.994;4.472;2024-02-21T11:35:35;11.74;76.00
71175;DHT22;58876;51.994;4.472;2024-02-21T11:38:11;11.67;76.01
71175;DHT22;58876;51.994;4.472;2024-02-21T11:40:46;11.38;76.42
71175;DHT22;58876;51.994;4.472;2024-02-21T11:43:12;11.52;76.24
71175;DHT22;58876;51.994;4.472;2024-02-21T11:45:37;11.63;76.05
71175;DHT22;58876;51.994;4.472;2024-02-21T11:48:07;11.52;76.03
71175;DHT22;58876;51.994;4.472;2024-02-21T11:50:35;11.44;76.34
71175;DHT22;58876;51.994;4.472;2024-02-21T11:53:02;11.33;76.94
71175;DHT22;58876;51.994;4.472;2024-02-21T11:55:28;11.09;77.36
71175;DHT22;58876;51.994;4.472;2024-02-21T11:57:54;11.15;77.51
71175;DHT22;58876;51.994;4.472;2024-02-21T12:00:20;11.23;77.10
71175;DHT22;58876;51.994;4.472;2024-02-21T12:02:46;11.35;77.08
71175;DHT22;58876;51.994;4.472;2024-02-21T12:05:12;11.26;76.89
71175;DHT22;58876;51.994;4.472;2024-02-21T12:07:37;11.16;77.05
71175;DHT22;58876;51.994;4.472;2024-02-21T12:10:13;11.09;77.58
71175;DHT22;58876;51.994;4.472;2024-02-21T12:12:39;11.02;77.67
71175;DHT22;58876;51.994;4.472;2024-02-21T12:15:05;10.81;78.34
71175;DHT22;58876;51.994;4.472;2024-02-21T12:17:43;10.75;78.70
71175;DHT22;58876;51.994;4.472;2024-02-21T12:20:09;10.87;78.01
71175;DHT22;58876;51.994;4.472;2024-02-21T12:22:52;11.15;77.56
71175;DHT22;58876;51.994;4.472;2024-02-21T12:25:21;11.65;76.09
71175;DHT22;58876;51.994;4.472;2024-02-21T12:27:53;11.55;75.94
71175;DHT22;58876;51.994;4.472;2024-02-21T12:30:19;11.65;75.84
71175;DHT22;58876;51.994;4.472;2024-02-21T12:32:46;11.58;76.08
71175;DHT22;58876;51.994;4.472;2024-02-21T12:35:11;11.67;75.59
71175;DHT22;58876;51.994;4.472;2024-02-21T12:37:37;11.53;75.95
71175;DHT22;58876;51.994;4.472;2024-02-21T12:40:08;11.70;75.58
71175;DHT22;58876;51.994;4.472;2024-02-21T12:42:34;11.53;76.18
71175;DHT22;58876;51.994;4.472;2024-02-21T12:45:00;10.92;77.69
71175;DHT22;58876;51.994;4.472;2024-02-21T12:47:25;10.81;78.54
71175;DHT22;58876;51.994;4.472;2024-02-21T12:49:55;10.90;78.54
71175;DHT22;58876;51.994;4.472;2024-02-21T12:52:21;10.78;78.59
71175;DHT22;58876;51.994;4.472;2024-02-21T12:54:46;10.68;79.31
71175;DHT22;58876;51.994;4.472;2024-02-21T12:57:12;10.77;78.94
71175;DHT22;58876;51.994;4.472;2024-02-21T12:59:38;10.61;79.36
71175;DHT22;58876;51.994;4.472;2024-02-21T13:02:03;10.72;79.35
71175;DHT22;58876;51.994;4.472;2024-02-21T13:04:29;10.74;79.28
71175;DHT22;58876;51.994;4.472;2024-02-21T13:06:54;10.57;79.52
71175;DHT22;58876;51.994;4.472;2024-02-21T13:09:21;10.61;79.91
71175;DHT22;58876;51.994;4.472;2024-02-21T13:11:46;10.57;79.71
71175;DHT22;58876;51.994;4.472;2024-02-21T13:14:12;10.60;79.58
71175;DHT22;58876;51.994;4.472;2024-02-21T13:16:37;10.63;79.64
71175;DHT22;58876;51.994;4.472;2024-02-21T13:19:08;10.57;79.45
71175;DHT22;58876;51.994;4.472;2024-02-21T13:21:34;10.57;79.61
71175;DHT22;58876;51.994;4.472;2024-02-21T13:24:00;10.68;79.74
71175;DHT22;58876;51.994;4.472;2024-02-21T13:26:26;10.53;79.79
71175;DHT22;58876;51.994;4.472;2024-02-21T13:28:51;10.64;79.81
71175;DHT22;58876;51.994;4.472;2024-02-21T13:31:17;10.63;79.57
71175;DHT22;58876;51.994;4.472;2024-02-21T13:33:42;10.49;79.90
71175;DHT22;58876;51.994;4.472;2024-02-21T13:36:10;10.53;79.85
71175;DHT22;58876;51.994;4.472;2024-02-21T13:38:35;10.54;79.64
71175;DHT22;58876;51.994;4.472;2024-02-21T13:41:00;10.97;78.82
71175;DHT22;58876;51.994;4.472;2024-02-21T13:43:26;10.97;78.15
71175;DHT22;58876;51.994;4.472;2024-02-21T13:45:57;10.92;78.30
71175;DHT22;58876;51.994;4.472;2024-02-21T13:48:23;10.94;78.87
71175;DHT22;58876;51.994;4.472;2024-02-21T13:50:50;11.02;79.21
71175;DHT22;58876;51.994;4.472;2024-02-21T13:53:15;10.85;79.38
71175;DHT22;58876;51.994;4.472;2024-02-21T13:55:46;10.75;80.46
71175;DHT22;58876;51.994;4.472;2024-02-21T13:58:12;10.56;81.36
71175;DHT22;58876;51.994;4.472;2024-02-21T14:00:37;10.61;81.53
71175;DHT22;58876;51.994;4.472;2024-02-21T14:03:03;11.12;80.15
71175;DHT22;58876;51.994;4.472;2024-02-21T14:05:29;11.28;79.01
71175;DHT22;58876;51.994;4.472;2024-02-21T14:07:55;11.07;79.59
71175;DHT22;58876;51.994;4.472;2024-02-21T14:10:22;10.78;79.66
71175;DHT22;58876;51.994;4.472;2024-02-21T14:12:47;10.95;80.14
71175;DHT22;58876;51.994;4.472;2024-02-21T14:15:15;10.91;80.23
71175;DHT22;58876;51.994;4.472;2024-02-21T14:17:43;10.44;82.52
71175;DHT22;58876;51.994;4.472;2024-02-21T14:20:09;11.16;80.03
71175;DHT22;58876;51.994;4.472;2024-02-21T14:22:35;10.84;80.72
71175;DHT22;58876;51.994;4.472;2024-02-21T14:25:03;11.09;80.39
71175;DHT22;58876;51.994;4.472;2024-02-21T14:27:32;11.07;80.99
71175;DHT22;58876;51.994;4.472;2024-02-21T14:29:58;11.01;81.17
71175;DHT22;58876;51.994;4.472;2024-02-21T14:32:23;10.71;81.25
71175;DHT22;58876;51.994;4.472;2024-02-21T14:34:51;10.53;81.97
71175;DHT22;58876;51.994;4.472;2024-02-21T14:37:16;11.14;81.08
71175;DHT22;58876;51.994;4.472;2024-02-21T14:39:42;10.43;83.25
71175;DHT22;58876;51.994;4.472;2024-02-21T14:42:08;10.02;85.08
71175;DHT22;58876;51.994;4.472;2024-02-21T14:44:43;9.89;85.52
71175;DHT22;58876;51.994;4.472;2024-02-21T14:47:09;9.93;85.83
71175;DHT22;58876;51.994;4.472;2024-02-21T14:49:34;9.86;86.18
71175;DHT22;58876;51.994;4.472;2024-02-21T14:52:04;9.93;86.19
71175;DHT22;58876;51.994;4.472;2024-02-21T14:54:29;9.89;86.50
71175;DHT22;58876;51.994;4.472;2024-02-21T14:56:55;9.89;86.41
71175;DHT22;58876;51.994;4.472;2024-02-21T14:59:20;10.01;86.55
71175;DHT22;58876;51.994;4.472;2024-02-21T15:01:45;10.01;86.10
71175;DHT22;58876;51.994;4.472;2024-02-21T15:04:11;9.95;86.65
71175;DHT22;58876;51.994;4.472;2024-02-21T15:06:37;9.92;86.86
71175;DHT22;58876;51.994;4.472;2024-02-21T15:09:05;9.78;87.31
71175;DHT22;58876;51.994;4.472;2024-02-21T15:11:33;9.79;87.47
71175;DHT22;58876;51.994;4.472;2024-02-21T15:13:58;9.75;87.52
71175;DHT22;58876;51.994;4.472;2024-02-21T15:16:24;9.79;87.63
71175;DHT22;58876;51.994;4.472;2024-02-21T15:18:49;9.85;87.83
71175;DHT22;58876;51.994;4.472;2024-02-21T15:21:15;9.79;87.91
71175;DHT22;58876;51.994;4.472;2024-02-21T15:23:41;9.85;88.04
71175;DHT22;58876;51.994;4.472;2024-02-21T15:26:07;9.93;87.96
71175;DHT22;58876;51.994;4.472;2024-02-21T15:28:32;9.81;87.97
71175;DHT22;58876;51.994;4.472;2024-02-21T15:30:58;9.82;88.25
71175;DHT22;58876;51.994;4.472;2024-02-21T15:33:23;9.79;88.38